Time;durP1;ratioP1;P1;durP2;ratioP2;P2;SDS_P1;SDS_P2;PMS_P1;PMS_P2;Temp;Humidity;BMP_temperature;BMP_pressure;BME280_temperature;BME280_humidity;BME280_pressure;Samples;Min_cycle;Max_cycle;Signal;HPM_P1;HPM_P2
2023/09/10 00:00:50;;;;;;;9.40;8.47;;;16.00;99.90;;;;;;5012680;28;20463;-52
2023/09/10 00:03:18;;;;;;;11.97;8.53;;;16.00;99.90;;;;;;5014486;28;20570;-52
2023/09/10 00:05:45;;;;;;;9.77;8.63;;;15.90;99.90;;;;;;5014436;28;20495;-51
2023/09/10 00:08:11;;;;;;;11.17;9.00;;;15.90;99.90;;;;;;5011315;28;20551;-53
2023/09/10 00:10:39;;;;;;;10.10;9.20;;;15.90;99.90;;;;;;5012296;28;20530;-53
2023/09/10 00:13:06;;;;;;;10.63;9.53;;;15.80;99.90;;;;;;5014449;28;20498;-52
2023/09/10 00:15:32;;;;;;;11.13;9.23;;;15.90;99.90;;;;;;5008446;28;20526;-52
2023/09/10 00:17:59;;;;;;;10.47;8.87;;;15.80;99.90;;;;;;5011695;28;20486;-53
2023/09/10 00:20:27;;;;;;;10.50;9.50;;;15.80;99.90;;;;;;5013515;28;20502;-52
2023/09/10 00:22:53;;;;;;;10.40;9.13;;;15.80;99.90;;;;;;5014031;28;20483;-52
2023/09/10 00:25:20;;;;;;;11.63;9.20;;;15.80;99.90;;;;;;5016622;28;20545;-52
2023/09/10 00:27:46;;;;;;;13.57;9.17;;;15.70;99.90;;;;;;5008559;28;20908;-51
2023/09/10 00:30:13;;;;;;;11.80;10.03;;;15.70;99.90;;;;;;5018859;28;20995;-52
2023/09/10 00:32:40;;;;;;;10.80;8.93;;;15.70;99.90;;;;;;5011382;28;20513;-51
2023/09/10 00:35:08;;;;;;;14.47;8.00;;;15.70;99.90;;;;;;5008786;28;20922;-53
2023/09/10 00:37:36;;;;;;;10.97;8.83;;;15.60;99.90;;;;;;5012830;28;20466;-51
2023/09/10 00:40:04;;;;;;;9.73;8.10;;;15.60;99.90;;;;;;5013401;28;20900;-51
2023/09/10 00:42:30;;;;;;;9.67;8.77;;;15.60;99.90;;;;;;5011743;28;20487;-52
2023/09/10 00:44:57;;;;;;;10.07;8.17;;;15.50;99.90;;;;;;5011193;28;20519;-52
2023/09/10 00:47:24;;;;;;;11.80;9.07;;;15.50;99.90;;;;;;5008540;28;20503;-52
2023/09/10 00:49:50;;;;;;;10.03;9.00;;;15.50;99.90;;;;;;5019845;28;20521;-52
2023/09/10 00:52:19;;;;;;;9.90;8.90;;;15.40;99.90;;;;;;5014550;28;20497;-53
2023/09/10 00:54:47;;;;;;;10.33;9.30;;;15.40;99.90;;;;;;5012166;28;20483;-53
2023/09/10 00:57:14;;;;;;;12.37;8.83;;;15.40;99.90;;;;;;5011159;28;20533;-53
2023/09/10 00:59:42;;;;;;;16.10;9.77;;;15.30;99.90;;;;;;5018634;28;20451;-52
2023/09/10 01:02:12;;;;;;;12.20;8.80;;;15.30;99.90;;;;;;5012309;28;20491;-52
2023/09/10 01:04:38;;;;;;;9.50;8.53;;;15.30;99.90;;;;;;5011302;28;20511;-53
2023/09/10 01:07:05;;;;;;;10.30;9.07;;;15.30;99.90;;;;;;5012585;28;20521;-53
2023/09/10 01:09:32;;;;;;;10.30;9.30;;;15.20;99.90;;;;;;5012548;28;20523;-52
2023/09/10 01:12:15;;;;;;;11.93;9.60;;;15.20;99.90;;;;;;5011171;28;20484;-53
2023/09/10 01:14:49;;;;;;;12.30;9.10;;;15.20;99.90;;;;;;5011267;28;20985;-53
2023/09/10 01:17:24;;;;;;;9.90;9.00;;;15.20;99.90;;;;;;5010736;28;20487;-52
2023/09/10 01:20:09;;;;;;;10.20;9.17;;;15.20;97.80;;;;;;5002788;28;20519;-52
2023/09/10 01:22:46;;;;;;;10.73;8.63;;;15.20;99.90;;;;;;5012304;28;20481;-52
2023/09/10 01:25:15;;;;;;;10.37;8.70;;;15.10;99.90;;;;;;5010154;28;21006;-53
2023/09/10 01:27:43;;;;;;;10.30;9.10;;;15.00;94.00;;;;;;5010151;28;20460;-51
2023/09/10 01:30:10;;;;;;;14.67;9.73;;;15.10;93.90;;;;;;5009953;28;20466;-52
2023/09/10 01:32:40;;;;;;;10.50;9.60;;;15.10;93.50;;;;;;5016911;28;20497;-53
2023/09/10 01:35:13;;;;;;;9.50;8.50;;;15.00;90.20;;;;;;5006928;28;20526;-52
2023/09/10 01:37:45;;;;;;;12.40;9.70;;;15.00;92.70;;;;;;5009105;28;20484;-53
2023/09/10 01:40:20;;;;;;;12.27;9.70;;;14.90;94.70;;;;;;5009532;28;20488;-53
2023/09/10 01:42:48;;;;;;;9.73;8.23;;;14.90;95.60;;;;;;5003735;28;20577;-52
2023/09/10 01:45:15;;;;;;;13.77;9.40;;;14.90;92.90;;;;;;5005619;28;20487;-52
2023/09/10 01:47:42;;;;;;;10.93;9.17;;;14.80;94.00;;;;;;5012260;28;20468;-52
2023/09/10 01:50:10;;;;;;;11.17;9.63;;;14.80;91.90;;;;;;5010837;28;20558;-53
2023/09/10 01:52:36;;;;;;;11.23;10.03;;;14.70;87.20;;;;;;5010284;28;20483;-51
2023/09/10 01:55:03;;;;;;;17.80;10.13;;;14.70;80.70;;;;;;5014411;28;20563;-55
2023/09/10 01:57:31;;;;;;;10.17;9.10;;;14.70;84.00;;;;;;5010999;28;20484;-52
2023/09/10 01:59:57;;;;;;;9.70;8.63;;;14.70;84.10;;;;;;5005406;28;20551;-52
2023/09/10 02:02:24;;;;;;;12.40;9.30;;;14.70;84.70;;;;;;5012769;28;20918;-53
2023/09/10 02:04:50;;;;;;;11.53;9.33;;;14.70;88.20;;;;;;5008929;28;20566;-52
2023/09/10 02:07:17;;;;;;;10.30;9.30;;;14.70;82.00;;;;;;5009862;28;20487;-53
2023/09/10 02:09:43;;;;;;;10.80;9.63;;;14.60;86.30;;;;;;5009325;28;20494;-51
2023/09/10 02:12:10;;;;;;;10.30;9.30;;;14.60;85.70;;;;;;5012015;28;20490;-51
2023/09/10 02:14:38;;;;;;;9.70;8.73;;;14.50;83.50;;;;;;5010485;28;21000;-51
2023/09/10 02:17:07;;;;;;;18.57;9.70;;;14.50;83.50;;;;;;5011812;28;20463;-52
2023/09/10 02:19:34;;;;;;;10.40;9.43;;;14.50;83.20;;;;;;5018405;28;20521;-52
2023/09/10 02:22:02;;;;;;;12.27;9.50;;;14.50;82.40;;;;;;5010711;28;20558;-51
2023/09/10 02:24:29;;;;;;;15.53;8.70;;;14.40;79.10;;;;;;5010707;28;20488;-51
2023/09/10 02:26:55;;;;;;;11.70;9.43;;;14.40;78.50;;;;;;5029687;28;20893;-52
2023/09/10 02:29:22;;;;;;;9.37;8.47;;;14.30;78.20;;;;;;5015734;28;20547;-53
2023/09/10 02:31:49;;;;;;;10.63;9.63;;;14.30;78.70;;;;;;5011681;28;20443;-52
2023/09/10 02:34:16;;;;;;;9.90;9.00;;;14.30;76.00;;;;;;5004496;28;21027;-53
2023/09/10 02:36:42;;;;;;;9.47;8.60;;;14.20;76.00;;;;;;5016108;28;20499;-51
2023/09/10 02:39:09;;;;;;;10.53;8.93;;;14.30;76.40;;;;;;5023107;28;20489;-51
2023/09/10 02:41:35;;;;;;;10.93;9.93;;;14.30;74.60;;;;;;5016041;28;20511;-52
2023/09/10 02:44:02;;;;;;;10.97;9.97;;;14.20;73.40;;;;;;5027633;28;20531;-52
2023/09/10 02:46:28;;;;;;;10.53;9.40;;;14.20;72.20;;;;;;5017394;28;20546;-52
2023/09/10 02:48:56;;;;;;;10.20;9.17;;;14.20;72.90;;;;;;5014686;28;20558;-52
2023/09/10 02:51:23;;;;;;;11.00;9.13;;;14.20;72.40;;;;;;5009936;28;20487;-53
2023/09/10 02:53:49;;;;;;;12.27;10.30;;;14.10;71.50;;;;;;5014814;28;20464;-51
2023/09/10 02:56:16;;;;;;;12.37;10.07;;;14.10;71.90;;;;;;5017424;28;20973;-51
2023/09/10 02:58:42;;;;;;;13.87;9.70;;;14.10;67.80;;;;;;5011982;28;20547;-52
2023/09/10 03:01:09;;;;;;;11.00;9.87;;;14.10;70.50;;;;;;5014077;28;20555;-52
2023/09/10 03:03:35;;;;;;;10.50;9.37;;;14.10;69.20;;;;;;5019844;28;20581;-52
2023/09/10 03:06:11;;;;;;;15.10;9.33;;;14.00;67.80;;;;;;5012146;28;20559;-51
2023/09/10 03:08:38;;;;;;;10.60;9.63;;;14.00;66.00;;;;;;5023637;28;20468;-53
2023/09/10 03:11:04;;;;;;;10.00;9.10;;;14.00;67.00;;;;;;5011506;28;20911;-53
2023/09/10 03:13:31;;;;;;;10.30;9.30;;;13.90;67.90;;;;;;5016441;28;20465;-53
2023/09/10 03:15:58;;;;;;;12.13;10.60;;;13.90;66.50;;;;;;5020502;28;20487;-53
2023/09/10 03:18:24;;;;;;;18.77;9.60;;;13.90;64.70;;;;;;5014246;28;21015;-53
2023/09/10 03:20:51;;;;;;;11.03;9.93;;;13.90;58.70;;;;;;5012439;28;20968;-52
2023/09/10 03:23:19;;;;;;;21.60;10.20;;;13.90;61.90;;;;;;5013934;28;20577;-53
2023/09/10 03:25:46;;;;;;;10.53;9.20;;;13.90;61.40;;;;;;5014321;28;20486;-52
2023/09/10 03:28:13;;;;;;;12.23;9.50;;;13.90;65.30;;;;;;5018642;28;20465;-52
2023/09/10 03:30:39;;;;;;;10.20;9.17;;;13.80;63.50;;;;;;5023675;28;20903;-52
2023/09/10 03:33:06;;;;;;;11.13;10.17;;;13.80;63.50;;;;;;5015813;28;20547;-53
2023/09/10 03:35:32;;;;;;;13.13;10.37;;;13.70;62.10;;;;;;5015082;28;20537;-53
2023/09/10 03:37:59;;;;;;;10.70;9.60;;;13.70;60.50;;;;;;5005657;28;20812;-53
2023/09/10 03:40:27;;;;;;;18.83;10.10;;;13.70;60.90;;;;;;5011135;28;20527;-53
2023/09/10 03:42:53;;;;;;;11.20;10.00;;;13.70;59.50;;;;;;5016043;28;20491;-53
2023/09/10 03:45:20;;;;;;;12.93;9.60;;;13.70;57.50;;;;;;5015948;28;20562;-53
2023/09/10 03:47:46;;;;;;;16.50;10.50;;;13.60;57.70;;;;;;5007601;28;20586;-53
2023/09/10 03:50:14;;;;;;;10.93;9.30;;;13.60;58.40;;;;;;5008231;28;20518;-52
2023/09/10 03:52:41;;;;;;;12.43;10.33;;;13.50;58.00;;;;;;5012154;28;20464;-52
2023/09/10 03:55:08;;;;;;;11.60;9.70;;;13.50;52.40;;;;;;5016806;28;20597;-54
2023/09/10 03:57:36;;;;;;;11.50;9.30;;;13.60;56.20;;;;;;5027630;28;20474;-52
2023/09/10 04:00:04;;;;;;;12.57;10.17;;;13.50;57.60;;;;;;5023128;28;20991;-51
2023/09/10 04:02:31;;;;;;;10.57;9.63;;;13.50;55.40;;;;;;5026216;28;20508;-52
2023/09/10 04:04:57;;;;;;;11.03;9.57;;;13.50;56.30;;;;;;5012051;28;20522;-52
2023/09/10 04:07:24;;;;;;;10.03;9.10;;;13.50;54.90;;;;;;5015929;28;20459;-53
2023/09/10 04:09:50;;;;;;;10.97;9.97;;;13.40;50.00;;;;;;5023175;28;20457;-52
2023/09/10 04:12:17;;;;;;;11.60;10.50;;;13.40;47.00;;;;;;5010354;28;20463;-52
2023/09/10 04:14:45;;;;;;;11.50;10.40;;;13.40;50.40;;;;;;5021462;28;20550;-52
2023/09/10 04:17:16;;;;;;;11.13;10.13;;;13.30;46.80;;;;;;5010081;28;20834;-52
2023/09/10 04:19:42;;;;;;;16.83;10.53;;;13.30;44.20;;;;;;5013928;28;20514;-52
2023/09/10 04:22:09;;;;;;;10.60;9.50;;;13.30;48.30;;;;;;5016644;28;20468;-52
2023/09/10 04:24:35;;;;;;;11.60;10.50;;;13.30;50.60;;;;;;5016244;28;20574;-52
2023/09/10 04:27:03;;;;;;;11.70;10.50;;;13.40;48.90;;;;;;5017530;28;20837;-51
2023/09/10 04:29:30;;;;;;;14.73;10.40;;;13.40;51.50;;;;;;5005806;28;20470;-53
2023/09/10 04:31:58;;;;;;;17.10;10.40;;;13.40;50.90;;;;;;5015093;28;20475;-52
2023/09/10 04:34:24;;;;;;;12.27;10.43;;;13.40;47.00;;;;;;5010169;28;20574;-52
2023/09/10 04:36:51;;;;;;;11.57;10.20;;;13.40;47.90;;;;;;5010958;28;21020;-53
2023/09/10 04:39:19;;;;;;;11.23;10.03;;;13.30;46.70;;;;;;5013665;28;20961;-52
2023/09/10 04:41:45;;;;;;;13.33;10.60;;;13.30;47.00;;;;;;5009627;28;20563;-52
2023/09/10 04:44:12;;;;;;;11.23;10.20;;;13.30;50.00;;;;;;5004610;28;21070;-53
2023/09/10 04:46:38;;;;;;;12.47;10.83;;;13.30;49.10;;;;;;5013202;28;20475;-52
2023/09/10 04:49:06;;;;;;;16.33;9.93;;;13.40;54.20;;;;;;5011169;28;20560;-51
2023/09/10 04:51:33;;;;;;;17.53;10.20;;;13.40;46.30;;;;;;5010916;28;20501;-51
2023/09/10 04:53:59;;;;;;;11.07;10.07;;;13.30;48.30;;;;;;5018860;28;20468;-52
2023/09/10 04:56:26;;;;;;;11.53;10.47;;;13.20;46.70;;;;;;5011586;28;20496;-52
2023/09/10 04:58:52;;;;;;;19.97;11.67;;;13.20;47.40;;;;;;5020848;28;21039;-51
2023/09/10 05:01:19;;;;;;;11.80;9.80;;;13.20;46.30;;;;;;5011953;28;20556;-52
2023/09/10 05:03:45;;;;;;;11.80;10.70;;;13.20;47.50;;;;;;5021142;28;20922;-54
2023/09/10 05:06:13;;;;;;;11.23;10.13;;;13.30;46.70;;;;;;5002819;28;20569;-52
2023/09/10 05:08:40;;;;;;;11.40;10.20;;;13.30;46.50;;;;;;5021242;28;20444;-53
2023/09/10 05:11:07;;;;;;;11.97;10.87;;;13.30;45.40;;;;;;5020903;28;20694;-54
2023/09/10 05:13:33;;;;;;;12.00;10.70;;;13.30;43.40;;;;;;5022089;28;20502;-53
2023/09/10 05:16:00;;;;;;;11.23;10.10;;;13.40;43.90;;;;;;5018274;28;21041;-54
2023/09/10 05:18:26;;;;;;;13.40;10.80;;;13.40;47.50;;;;;;5032818;28;20497;-54
2023/09/10 05:20:53;;;;;;;11.90;10.70;;;13.40;49.60;;;;;;5021523;28;20467;-53
2023/09/10 05:23:22;;;;;;;10.87;9.87;;;13.50;47.50;;;;;;5010341;28;20916;-54
2023/09/10 05:25:49;;;;;;;10.40;9.50;;;13.60;45.50;;;;;;5025991;28;20494;-54
2023/09/10 05:28:16;;;;;;;12.57;10.63;;;13.50;48.30;;;;;;5019616;28;20506;-53
2023/09/10 05:30:42;;;;;;;11.53;10.40;;;13.60;46.10;;;;;;5006882;28;20490;-52
2023/09/10 05:33:09;;;;;;;11.53;10.33;;;13.60;46.60;;;;;;5011377;28;20571;-54
2023/09/10 05:35:35;;;;;;;11.17;10.17;;;13.60;46.10;;;;;;5010857;28;20522;-55
2023/09/10 05:38:02;;;;;;;12.90;10.70;;;13.80;47.80;;;;;;5012122;28;20483;-55
2023/09/10 05:40:36;;;;;;;12.07;10.10;;;13.80;47.90;;;;;;5009632;28;20493;-55
2023/09/10 05:43:03;;;;;;;11.80;10.57;;;13.80;47.60;;;;;;5010367;28;20468;-53
2023/09/10 05:45:31;;;;;;;11.23;10.17;;;13.90;47.00;;;;;;5016106;28;20570;-53
2023/09/10 05:47:58;;;;;;;10.60;9.70;;;13.90;44.40;;;;;;5015872;28;20554;-52
2023/09/10 05:50:24;;;;;;;12.47;11.10;;;14.00;46.30;;;;;;5015541;28;20563;-51
2023/09/10 05:52:53;;;;;;;11.23;10.03;;;14.00;46.50;;;;;;5011956;28;20901;-52
2023/09/10 05:55:19;;;;;;;11.50;10.40;;;14.10;46.00;;;;;;5025929;28;20474;-51
2023/09/10 05:57:47;;;;;;;11.40;9.93;;;14.10;46.70;;;;;;5019414;28;20550;-51
2023/09/10 06:00:15;;;;;;;12.73;10.43;;;14.20;45.90;;;;;;5022309;28;20463;-51
2023/09/10 06:02:41;;;;;;;11.03;9.93;;;14.30;45.30;;;;;;5010601;28;20547;-51
2023/09/10 06:05:09;;;;;;;11.67;10.57;;;14.40;44.20;;;;;;5011769;28;21040;-52
2023/09/10 06:07:35;;;;;;;11.80;10.63;;;14.50;45.10;;;;;;5011841;28;20490;-52
2023/09/10 06:10:06;;;;;;;10.63;9.60;;;14.50;45.90;;;;;;5015302;28;21027;-51
2023/09/10 06:12:32;;;;;;;12.03;10.93;;;14.70;46.50;;;;;;5015399;28;20955;-52
2023/09/10 06:15:00;;;;;;;13.00;9.63;;;14.80;46.20;;;;;;5012650;28;20542;-52
2023/09/10 06:17:27;;;;;;;11.20;10.20;;;14.90;47.90;;;;;;5019881;28;21012;-52
2023/09/10 06:19:53;;;;;;;11.20;10.20;;;15.00;50.60;;;;;;5024138;28;20553;-52
2023/09/10 06:22:20;;;;;;;12.30;11.00;;;15.10;54.20;;;;;;5010664;28;20915;-52
2023/09/10 06:24:46;;;;;;;12.43;11.03;;;15.20;56.40;;;;;;5018938;28;20527;-52
2023/09/10 06:27:13;;;;;;;11.80;10.63;;;15.30;56.30;;;;;;5013640;28;20470;-51
2023/09/10 06:29:39;;;;;;;12.50;11.20;;;15.40;54.70;;;;;;5008398;28;20549;-50
2023/09/10 06:32:07;;;;;;;12.73;11.53;;;15.50;53.20;;;;;;5010409;28;20463;-51
2023/09/10 06:34:34;;;;;;;14.20;11.90;;;15.70;55.50;;;;;;5011455;28;20542;-51
2023/09/10 06:37:01;;;;;;;16.93;11.53;;;15.80;55.00;;;;;;5007537;28;20471;-51
2023/09/10 06:39:28;;;;;;;17.97;10.97;;;16.00;55.60;;;;;;5002226;28;20459;-52
2023/09/10 06:41:55;;;;;;;14.17;11.77;;;16.20;55.60;;;;;;5010823;28;20905;-51
2023/09/10 06:44:22;;;;;;;17.63;12.60;;;16.40;57.60;;;;;;5011745;28;20487;-51
2023/09/10 06:46:48;;;;;;;15.30;12.63;;;16.60;58.40;;;;;;5008368;28;20471;-51
2023/09/10 06:49:16;;;;;;;14.80;13.23;;;16.80;60.90;;;;;;5009516;28;20491;-53
2023/09/10 06:51:42;;;;;;;20.03;13.10;;;16.90;66.10;;;;;;5014445;28;20550;-54
2023/09/10 06:54:09;;;;;;;13.67;12.27;;;17.10;69.00;;;;;;5010464;28;20891;-51
2023/09/10 06:56:35;;;;;;;21.13;15.10;;;17.20;71.50;;;;;;5007242;28;20513;-52
2023/09/10 06:59:02;;;;;;;24.43;17.53;;;17.40;77.00;;;;;;5012055;28;20553;-52
2023/09/10 07:01:28;;;;;;;22.70;15.50;;;17.60;80.70;;;;;;5007128;28;20491;-51
2023/09/10 07:03:57;;;;;;;24.03;18.27;;;17.80;88.80;;;;;;5008642;28;20559;-51
2023/09/10 07:06:25;;;;;;;29.77;17.10;;;17.90;94.80;;;;;;5008947;28;20460;-50
2023/09/10 07:08:51;;;;;;;28.73;16.10;;;18.20;99.90;;;;;;5015035;28;20711;-51
2023/09/10 07:11:18;;;;;;;25.17;16.60;;;18.30;99.90;;;;;;5013737;28;20500;-51
2023/09/10 07:13:45;;;;;;;26.07;16.13;;;18.40;99.90;;;;;;5006126;28;20452;-51
2023/09/10 07:16:11;;;;;;;21.03;15.70;;;18.50;99.90;;;;;;5006916;28;21595;-52
2023/09/10 07:18:38;;;;;;;26.83;16.17;;;18.70;99.90;;;;;;5008865;28;20949;-52
2023/09/10 07:21:04;;;;;;;26.07;18.87;;;18.90;99.90;;;;;;5012036;28;20489;-51
2023/09/10 07:23:32;;;;;;;40.83;24.57;;;19.00;99.90;;;;;;5008298;28;20546;-51
2023/09/10 07:25:59;;;;;;;34.07;23.80;;;19.10;99.90;;;;;;5008052;28;20610;-51
2023/09/10 07:28:25;;;;;;;33.83;23.20;;;19.30;99.90;;;;;;5010217;28;20498;-51
2023/09/10 07:30:52;;;;;;;34.40;23.57;;;19.40;99.90;;;;;;5011519;28;21017;-52
2023/09/10 07:33:18;;;;;;;34.57;22.50;;;19.50;99.90;;;;;;5013255;28;20483;-51
2023/09/10 07:35:45;;;;;;;39.40;19.50;;;19.60;99.90;;;;;;5011878;28;20518;-51
2023/09/10 07:38:11;;;;;;;42.03;21.60;;;19.70;99.90;;;;;;5006741;28;20503;-51
2023/09/10 07:40:39;;;;;;;30.00;19.13;;;19.90;99.90;;;;;;5014147;28;20518;-52
2023/09/10 07:43:06;;;;;;;26.77;16.77;;;20.00;99.90;;;;;;5014778;28;20480;-52
2023/09/10 07:45:32;;;;;;;30.07;16.83;;;20.20;99.90;;;;;;5013942;28;21035;-51
2023/09/10 07:47:59;;;;;;;24.57;16.50;;;20.30;99.90;;;;;;5012655;28;21084;-51
2023/09/10 07:50:27;;;;;;;25.63;15.90;;;20.50;99.90;;;;;;5013658;28;21149;-52
2023/09/10 07:52:54;;;;;;;32.13;17.37;;;20.60;99.90;;;;;;5015403;28;20493;-51
2023/09/10 07:55:21;;;;;;;34.37;16.90;;;20.80;99.90;;;;;;5009845;28;20562;-52
2023/09/10 07:57:49;;;;;;;31.43;18.40;;;21.00;99.90;;;;;;5013343;28;20502;-52
2023/09/10 08:00:17;;;;;;;26.77;17.87;;;21.10;97.90;;;;;;5020246;28;20455;-51
2023/09/10 08:02:43;;;;;;;16.90;11.30;;;21.30;21.90;;;;;;5013865;28;20913;-51
2023/09/10 08:05:10;;;;;;;16.60;10.87;;;21.50;82.30;;;;;;5009048;28;21490;-51
2023/09/10 08:07:36;;;;;;;21.67;11.67;;;21.80;99.90;;;;;;5013163;28;20875;-52
2023/09/10 08:10:03;;;;;;;23.63;10.50;;;22.10;99.90;;;;;;5013401;28;20550;-51
2023/09/10 08:12:30;;;;;;;30.63;11.20;;;22.30;99.90;;;;;;5009431;28;20455;-50
2023/09/10 08:14:58;;;;;;;12.77;10.70;;;22.60;99.90;;;;;;5011691;28;20605;-52
2023/09/10 08:17:24;;;;;;;17.70;11.00;;;22.70;99.90;;;;;;5006340;28;20502;-51
2023/09/10 08:19:51;;;;;;;16.57;10.90;;;22.80;99.90;;;;;;5016742;28;20969;-53
2023/09/10 08:22:18;;;;;;;13.50;11.00;;;22.80;99.90;;;;;;5008927;28;20882;-52
2023/09/10 08:24:46;;;;;;;17.77;10.80;;;23.00;99.90;;;;;;5007879;28;20515;-54
2023/09/10 08:27:13;;;;;;;12.60;10.53;;;23.10;99.90;;;;;;5009603;28;20452;-55
2023/09/10 08:29:39;;;;;;;11.83;9.73;;;23.20;99.90;;;;;;5018763;28;20504;-52
2023/09/10 08:32:07;;;;;;;13.50;9.50;;;23.30;99.90;;;;;;5013406;28;20550;-53
2023/09/10 08:34:34;;;;;;;12.67;9.40;;;23.40;99.90;;;;;;5016845;28;20544;-53
2023/09/10 08:37:02;;;;;;;11.60;8.67;;;23.50;99.90;;;;;;5015611;28;20566;-54
2023/09/10 08:39:29;;;;;;;9.13;7.33;;;23.60;99.90;;;;;;5005700;28;20456;-53
2023/09/10 08:42:02;;;;;;;8.37;7.53;;;23.70;99.90;;;;;;5015156;28;20495;-53
2023/09/10 08:44:30;;;;;;;12.30;8.00;;;23.80;99.90;;;;;;5010419;28;20511;-54
2023/09/10 08:47:00;;;;;;;8.60;7.40;;;24.10;99.90;;;;;;5008767;28;20478;-52
2023/09/10 08:49:31;;;;;;;10.70;7.60;;;24.20;99.90;;;;;;5019410;28;20542;-53
2023/09/10 08:51:58;;;;;;;7.87;7.07;;;24.50;99.90;;;;;;5016728;28;20550;-52
2023/09/10 08:54:24;;;;;;;12.57;8.00;;;24.80;99.90;;;;;;5020386;28;20495;-54
2023/09/10 08:56:52;;;;;;;10.13;7.80;;;25.10;99.90;;;;;;5010003;28;20555;-54
2023/09/10 08:59:21;;;;;;;20.13;8.20;;;25.30;99.90;;;;;;5010769;28;20546;-52
2023/09/10 09:01:47;;;;;;;10.67;9.13;;;25.40;99.90;;;;;;5004949;28;20500;-52
2023/09/10 09:04:16;;;;;;;14.77;8.53;;;25.70;99.90;;;;;;5014742;28;20591;-53
2023/09/10 09:06:51;;;;;;;10.07;8.30;;;25.90;99.90;;;;;;5013385;28;21083;-53
2023/09/10 09:09:19;;;;;;;12.97;7.60;;;26.00;99.90;;;;;;5020423;28;20562;-54
2023/09/10 09:11:47;;;;;;;22.03;7.93;;;26.10;99.90;;;;;;5009900;28;20487;-54
2023/09/10 09:14:14;;;;;;;12.17;7.87;;;26.10;99.90;;;;;;5006766;28;20566;-53
2023/09/10 09:16:41;;;;;;;8.27;6.63;;;26.10;99.90;;;;;;5010227;28;20542;-53
2023/09/10 09:19:11;;;;;;;10.93;8.93;;;26.20;99.90;;;;;;5011897;28;20496;-54
2023/09/10 09:21:40;;;;;;;15.83;7.40;;;26.10;99.90;;;;;;5011693;28;20471;-53
2023/09/10 09:24:10;;;;;;;13.67;7.50;;;26.10;99.90;;;;;;5014865;28;20464;-52
2023/09/10 09:26:39;;;;;;;11.60;9.10;;;26.20;99.90;;;;;;5006336;28;20488;-53
2023/09/10 09:29:08;;;;;;;13.53;9.57;;;26.40;99.90;;;;;;5003808;28;20473;-53
2023/09/10 09:31:34;;;;;;;16.33;9.50;;;26.40;99.90;;;;;;5013565;28;20879;-53
2023/09/10 09:34:01;;;;;;;13.07;8.90;;;26.50;99.90;;;;;;5011054;28;20554;-53
2023/09/10 09:36:29;;;;;;;17.80;9.50;;;26.60;99.90;;;;;;5011693;28;20543;-54
2023/09/10 09:38:56;;;;;;;25.20;9.30;;;26.60;99.90;;;;;;5011835;28;20472;-54
2023/09/10 09:41:24;;;;;;;23.17;8.33;;;26.80;99.90;;;;;;5011934;28;20520;-53
2023/09/10 09:43:51;;;;;;;10.50;7.60;;;26.80;99.90;;;;;;5016795;28;20550;-53
2023/09/10 09:46:18;;;;;;;11.43;9.27;;;26.90;99.90;;;;;;5007745;28;20574;-54
2023/09/10 09:48:45;;;;;;;9.57;7.00;;;27.00;99.90;;;;;;5010216;28;21158;-53
2023/09/10 09:51:15;;;;;;;8.80;7.33;;;27.10;99.90;;;;;;5004386;28;20555;-52
2023/09/10 09:53:43;;;;;;;15.40;9.63;;;27.20;99.90;;;;;;5012581;28;20468;-52
2023/09/10 09:56:09;;;;;;;11.43;7.90;;;27.40;99.90;;;;;;5010822;28;20542;-54
2023/09/10 09:58:37;;;;;;;14.90;7.70;;;27.50;99.90;;;;;;5011016;28;20830;-53
2023/09/10 10:01:03;;;;;;;12.70;7.77;;;27.90;99.90;;;;;;5006376;28;20563;-53
2023/09/10 10:03:32;;;;;;;8.50;6.40;;;28.00;99.90;;;;;;5015147;28;20554;-53
2023/09/10 10:05:58;;;;;;;14.90;7.17;;;28.30;99.90;;;;;;5013668;28;20492;-52
2023/09/10 10:08:26;;;;;;;9.90;7.93;;;28.60;99.90;;;;;;5012674;28;20478;-54
2023/09/10 10:10:54;;;;;;;9.00;7.90;;;28.90;99.90;;;;;;5011069;28;20467;-54
2023/09/10 10:13:22;;;;;;;12.07;7.23;;;29.70;99.90;;;;;;5016516;28;20513;-54
2023/09/10 10:15:52;;;;;;;14.67;9.03;;;31.00;99.90;;;;;;5005506;28;21220;-53
2023/09/10 10:18:20;;;;;;;10.20;8.23;;;31.20;99.90;;;;;;5008409;28;20965;-56
2023/09/10 10:20:49;;;;;;;13.20;7.20;;;31.30;99.90;;;;;;5007508;28;20483;-53
2023/09/10 10:23:16;;;;;;;9.70;8.10;;;31.90;99.90;;;;;;5016976;28;20465;-52
2023/09/10 10:25:43;;;;;;;14.03;7.00;;;32.30;99.90;;;;;;5008432;28;21013;-54
2023/09/10 10:28:11;;;;;;;11.50;6.80;;;32.20;99.90;;;;;;5007125;28;20502;-54
2023/09/10 10:30:41;;;;;;;14.00;6.87;;;32.90;99.90;;;;;;5008705;28;20460;-53
2023/09/10 10:33:12;;;;;;;11.10;6.03;;;33.60;99.90;;;;;;5009636;28;20551;-55
2023/09/10 10:35:45;;;;;;;10.60;6.00;;;33.80;99.90;;;;;;5007825;28;20514;-53
2023/09/10 10:38:17;;;;;;;10.83;6.27;;;33.30;99.90;;;;;;5013371;28;20534;-53
2023/09/10 10:40:45;;;;;;;6.30;5.53;;;32.90;99.90;;;;;;5010299;28;20539;-53
2023/09/10 10:43:17;;;;;;;5.70;5.27;;;32.70;99.90;;;;;;5011262;28;20518;-52
2023/09/10 10:45:46;;;;;;;6.97;6.27;;;32.60;99.90;;;;;;5005846;28;20977;-52
2023/09/10 10:48:19;;;;;;;5.10;4.50;;;33.10;99.90;;;;;;5004121;28;20467;-52
2023/09/10 10:50:46;;;;;;;6.20;5.60;;;33.20;99.90;;;;;;5009975;28;20460;-52
2023/09/10 10:53:20;;;;;;;9.37;5.13;;;32.30;99.90;;;;;;5012297;28;20479;-52
2023/09/10 10:55:50;;;;;;;5.23;4.83;;;32.70;99.90;;;;;;5014359;28;20997;-52
2023/09/10 10:58:18;;;;;;;5.43;4.93;;;32.50;99.90;;;;;;5011406;28;20972;-52
2023/09/10 11:00:48;;;;;;;6.80;4.93;;;32.20;99.90;;;;;;5017750;28;20474;-52
2023/09/10 11:03:17;;;;;;;5.10;4.60;;;32.90;99.90;;;;;;5010946;28;20461;-52
2023/09/10 11:06:07;;;;;;;8.13;5.27;;;33.10;99.90;;;;;;5015566;28;21079;-54
2023/09/10 11:08:36;;;;;;;7.23;4.90;;;33.20;99.90;;;;;;5010093;28;20462;-51
2023/09/10 11:11:04;;;;;;;10.30;5.20;;;33.70;99.90;;;;;;5019258;28;20995;-55
2023/09/10 11:13:31;;;;;;;8.90;5.03;;;33.40;99.90;;;;;;5015146;28;20440;-52
2023/09/10 11:16:17;;;;;;;8.60;5.17;;;32.90;99.90;;;;;;5015687;28;20483;-53
2023/09/10 11:18:46;;;;;;;9.43;4.97;;;33.70;99.90;;;;;;5007909;28;20497;-53
2023/09/10 11:21:14;;;;;;;5.53;4.87;;;32.00;99.90;;;;;;5016952;28;20463;-53
2023/09/10 11:24:02;;;;;;;8.97;5.67;;;31.50;99.90;;;;;;5008190;28;20494;-52
2023/09/10 11:26:30;;;;;;;6.00;5.50;;;30.80;99.90;;;;;;5010443;28;20546;-53
2023/09/10 11:28:58;;;;;;;7.43;5.17;;;30.40;99.90;;;;;;5010929;28;20464;-53
2023/09/10 11:31:39;;;;;;;12.20;5.47;;;30.20;99.90;;;;;;5012726;28;20554;-53
2023/09/10 11:34:41;;;;;;;7.97;5.30;;;30.00;99.90;;;;;;5015218;28;20447;-53
2023/09/10 11:37:09;;;;;;;5.57;5.07;;;29.80;99.90;;;;;;5022745;28;20490;-51
2023/09/10 11:39:37;;;;;;;7.00;5.30;;;29.70;99.90;;;;;;5017782;28;20469;-52
2023/09/10 11:42:07;;;;;;;9.43;5.60;;;29.70;99.90;;;;;;5024155;28;20825;-53
2023/09/10 11:44:34;;;;;;;5.80;5.20;;;29.70;99.90;;;;;;5014824;28;20577;-51
2023/09/10 11:47:01;;;;;;;11.93;5.77;;;29.70;99.90;;;;;;5004658;28;20564;-52
2023/09/10 11:49:27;;;;;;;5.33;4.93;;;29.90;99.90;;;;;;5013319;28;20554;-54
2023/09/10 11:51:57;;;;;;;9.43;5.90;;;30.20;99.90;;;;;;5012964;28;20554;-54
2023/09/10 11:54:24;;;;;;;6.50;5.10;;;30.00;99.90;;;;;;5022946;28;20510;-52
2023/09/10 11:56:52;;;;;;;7.70;4.43;;;30.00;99.90;;;;;;5016307;28;20459;-53
2023/09/10 11:59:20;;;;;;;8.33;5.60;;;29.90;99.90;;;;;;5005232;28;20556;-52
2023/09/10 12:01:47;;;;;;;8.10;5.10;;;29.90;99.90;;;;;;5020923;28;20562;-52
2023/09/10 12:04:16;;;;;;;6.00;4.60;;;30.00;99.90;;;;;;5016198;28;20506;-52
2023/09/10 12:06:43;;;;;;;6.83;5.27;;;30.10;99.90;;;;;;5017415;28;21095;-53
2023/09/10 12:09:13;;;;;;;14.23;5.40;;;30.30;99.90;;;;;;5013917;28;20547;-53
2023/09/10 12:11:40;;;;;;;21.83;5.33;;;30.80;99.90;;;;;;5011185;28;20957;-52
2023/09/10 12:14:08;;;;;;;6.93;5.47;;;30.90;99.90;;;;;;5018891;28;20499;-52
2023/09/10 12:16:34;;;;;;;18.93;6.07;;;30.80;99.90;;;;;;5013550;28;20516;-51
2023/09/10 12:19:02;;;;;;;6.30;4.87;;;30.90;99.90;;;;;;5007451;28;20535;-53
2023/09/10 12:21:28;;;;;;;5.80;5.20;;;30.80;99.90;;;;;;5011041;28;20499;-52
2023/09/10 12:23:55;;;;;;;12.90;4.67;;;30.70;99.90;;;;;;5010074;28;20463;-53
2023/09/10 12:26:23;;;;;;;7.47;4.63;;;31.10;99.90;;;;;;5013715;28;21088;-52
2023/09/10 12:28:50;;;;;;;7.17;4.53;;;31.30;99.90;;;;;;5015837;28;20585;-53
2023/09/10 12:31:17;;;;;;;4.90;4.57;;;31.70;99.90;;;;;;5013327;28;20459;-52
2023/09/10 12:33:44;;;;;;;6.07;4.40;;;32.60;99.90;;;;;;5016166;28;20456;-51
2023/09/10 12:36:12;;;;;;;4.27;3.97;;;32.70;99.90;;;;;;5013415;28;20577;-54
2023/09/10 12:38:38;;;;;;;7.27;5.20;;;32.30;99.90;;;;;;5012614;28;20896;-54